ΕΜΥ, Εθνική Μετεωρολογική Υπηρεσία - Δελτία Καιρού, Προγνώσεις

ΑΕΡΟΝΑΥΤΙΛΙΑ

GREEK AIRPORTS CODES

LGPA 201250Z AUTO 26008KT 250V320 //// // ////// 16/10 Q1010 RE//=

EUROPEAN AIRPORTS CODES

LCLK 201300Z 23021KT 9999 SCT028 BKN050 18/12 Q1015 NOSIG=